createdAt,value
2023-08-14T00:02:14.471Z,101357.38
2023-08-14T00:04:47.161Z,101372.25
2023-08-14T00:07:19.873Z,101365.03
2023-08-14T00:09:52.606Z,101357.81
2023-08-14T00:12:25.303Z,101367.06
2023-08-14T00:14:57.997Z,101353.44
2023-08-14T00:17:30.665Z,101370.59
2023-08-14T00:20:05.456Z,101352.63
2023-08-14T00:22:38.177Z,101361.63
2023-08-14T00:25:11.637Z,101350.63
2023-08-14T00:27:44.352Z,101361.44
2023-08-14T00:30:17.043Z,101362.72
2023-08-14T00:32:50.090Z,101349.09
2023-08-14T00:35:22.876Z,101343.19
2023-08-14T00:37:55.568Z,101331.13
2023-08-14T00:40:28.274Z,101329.56
2023-08-14T00:43:00.985Z,101347.34
2023-08-14T00:45:44.588Z,101333.66
2023-08-14T00:48:19.797Z,101354.22
2023-08-14T00:50:55.529Z,101339.03
2023-08-14T00:53:30.691Z,101341.81
2023-08-14T00:56:04.218Z,101347.00
2023-08-14T00:58:36.974Z,101342.91
2023-08-14T01:01:09.929Z,101345.00
2023-08-14T01:03:43.708Z,101334.22
2023-08-14T01:06:16.471Z,101325.50
2023-08-14T01:08:49.471Z,101332.44
2023-08-14T01:12:06.326Z,101319.31
2023-08-14T01:15:08.095Z,101320.28
2023-08-14T01:17:51.429Z,101315.47
2023-08-14T01:20:28.507Z,101331.66
2023-08-14T01:23:31.122Z,101324.50
2023-08-14T01:26:04.625Z,101318.28
2023-08-14T01:28:38.572Z,101317.19
2023-08-14T01:31:11.344Z,101313.91
2023-08-14T01:33:44.069Z,101317.75
2023-08-14T01:36:39.925Z,101318.31
2023-08-14T01:39:19.492Z,101292.63
2023-08-14T01:45:23.714Z,101303.13
2023-08-14T01:48:01.047Z,101297.25
2023-08-14T01:50:34.951Z,101305.25
2023-08-14T01:53:07.681Z,101302.91
2023-08-14T01:55:40.345Z,101302.19
2023-08-14T01:58:12.989Z,101270.88
2023-08-14T02:00:45.666Z,101272.66
2023-08-14T02:03:18.421Z,101282.91
2023-08-14T02:05:51.155Z,101279.88
2023-08-14T02:08:23.816Z,101272.66
2023-08-14T02:10:56.609Z,101275.75
2023-08-14T02:19:02.352Z,101260.38
2023-08-14T02:21:34.964Z,101251.94
2023-08-14T02:24:08.808Z,101270.13
2023-08-14T02:26:41.549Z,101259.88
2023-08-14T02:29:14.254Z,101271.94
2023-08-14T02:31:48.707Z,101262.63
2023-08-14T02:34:51.151Z,101271.50
2023-08-14T02:37:27.023Z,101252.69
2023-08-14T02:39:59.773Z,101253.16
2023-08-14T02:42:32.604Z,101247.25
2023-08-14T02:45:14.325Z,101266.53
2023-08-14T02:47:47.223Z,101259.31
2023-08-14T02:50:29.252Z,101259.31
2023-08-14T02:53:01.975Z,101266.00
2023-08-14T02:55:40.876Z,101253.84
2023-08-14T02:58:13.532Z,101267.47
2023-08-14T03:00:47.621Z,101270.72
2023-08-14T03:03:32.651Z,101266.44
2023-08-14T03:06:05.428Z,101263.84
2023-08-14T03:08:38.082Z,101277.97
2023-08-14T03:11:13.654Z,101272.53
2023-08-14T03:13:55.619Z,101264.41
2023-08-14T03:16:31.477Z,101267.47
2023-08-14T03:19:04.420Z,101261.31
2023-08-14T03:21:43.396Z,101250.75
2023-08-14T03:24:16.009Z,101256.94
2023-08-14T03:26:57.879Z,101246.66
2023-08-14T03:29:30.578Z,101259.75
2023-08-14T03:32:03.300Z,101251.53
2023-08-14T03:34:35.973Z,101258.78
2023-08-14T03:37:10.179Z,101246.97
2023-08-14T03:39:45.002Z,101251.31
2023-08-14T03:42:17.837Z,101238.69
2023-08-14T03:44:56.980Z,101259.75
2023-08-14T03:47:29.682Z,101254.34
2023-08-14T03:50:02.484Z,101266.94
2023-08-14T03:52:38.292Z,101252.22
2023-08-14T03:55:10.926Z,101265.31
2023-08-14T03:57:43.591Z,101252.47
2023-08-14T04:00:16.656Z,101248.38
2023-08-14T04:02:49.518Z,101242.25
2023-08-14T04:05:22.811Z,101249.69
2023-08-14T04:07:55.436Z,101251.44
2023-08-14T04:10:29.362Z,101257.63
2023-08-14T04:13:01.972Z,101268.91
2023-08-14T04:15:34.681Z,101239.72
2023-08-14T04:18:08.087Z,101238.44
2023-08-14T04:20:40.971Z,101228.13
2023-08-14T04:23:13.592Z,101230.53
2023-08-14T04:25:46.367Z,101233.06
2023-08-14T04:28:19.581Z,101224.34
2023-08-14T04:30:52.444Z,101222.22
2023-08-14T04:33:25.141Z,101225.84
2023-08-14T04:35:57.832Z,101222.78
2023-08-14T04:41:17.123Z,101213.56
2023-08-14T04:43:49.809Z,101221.81
2023-08-14T04:46:53.425Z,101224.66
2023-08-14T04:49:26.620Z,101217.72
2023-08-14T04:51:59.469Z,101218.72
2023-08-14T04:54:33.272Z,101204.03
2023-08-14T04:57:06.088Z,101202.78
2023-08-14T04:59:38.840Z,101210.00
2023-08-14T05:02:11.612Z,101195.41
2023-08-14T05:04:44.342Z,101210.28
2023-08-14T05:07:17.114Z,101201.03
2023-08-14T05:09:49.856Z,101194.56
2023-08-14T05:12:22.669Z,101189.97
2023-08-14T05:14:55.469Z,101185.88
2023-08-14T05:17:28.236Z,101186.41
2023-08-14T05:20:01.049Z,101179.28
2023-08-14T05:22:33.664Z,101189.28
2023-08-14T05:25:18.283Z,101192.88
2023-08-14T05:27:51.149Z,101195.88
2023-08-14T05:30:23.921Z,101189.22
2023-08-14T05:32:56.849Z,101202.34
2023-08-14T05:35:32.632Z,101208.44
2023-08-14T05:38:05.872Z,101199.75
2023-08-14T05:40:38.500Z,101202.56
2023-08-14T05:43:13.718Z,101194.56
2023-08-14T05:45:52.609Z,101201.47
2023-08-14T05:48:25.364Z,101200.19
2023-08-14T05:50:58.082Z,101219.94
2023-08-14T05:53:30.799Z,101230.94
2023-08-14T05:56:03.636Z,101224.78
2023-08-14T05:58:36.365Z,101205.25
2023-08-14T06:01:09.019Z,101218.81
2023-08-14T06:03:47.806Z,101225.50
2023-08-14T06:06:32.437Z,101227.59
2023-08-14T06:09:05.304Z,101220.59
2023-08-14T06:11:37.944Z,101225.22
2023-08-14T06:14:24.143Z,101244.94
2023-08-14T06:16:56.939Z,101237.25
2023-08-14T06:19:29.664Z,101219.28
2023-08-14T06:22:02.317Z,101244.19
2023-08-14T06:24:34.932Z,101228.53
2023-08-14T06:27:16.941Z,101249.63
2023-08-14T06:29:49.677Z,101235.75
2023-08-14T06:32:34.667Z,101236.56
2023-08-14T06:35:08.535Z,101231.19
2023-08-14T06:37:50.849Z,101224.28
2023-08-14T06:40:23.523Z,101213.19
2023-08-14T06:43:00.323Z,101212.16
2023-08-14T06:45:33.078Z,101203.72
2023-08-14T06:48:06.630Z,101205.78
2023-08-14T06:50:39.259Z,101217.88
2023-08-14T06:53:11.985Z,101220.97
2023-08-14T06:55:48.645Z,101224.78
2023-08-14T06:58:21.399Z,101215.53
2023-08-14T07:00:55.568Z,101222.50
2023-08-14T07:03:28.367Z,101214.53
2023-08-14T07:06:01.097Z,101221.91
2023-08-14T07:08:36.258Z,101208.91
2023-08-14T07:11:09.158Z,101224.56
2023-08-14T07:13:42.229Z,101204.28
2023-08-14T07:16:15.033Z,101199.63
2023-08-14T07:18:47.684Z,101209.19
2023-08-14T07:21:36.554Z,101215.84
2023-08-14T07:24:09.216Z,101210.22
2023-08-14T07:26:42.229Z,101207.47
2023-08-14T07:29:20.942Z,101207.97
2023-08-14T07:31:53.626Z,101209.47
2023-08-14T07:34:26.293Z,101212.28
2023-08-14T07:37:19.258Z,101217.88
2023-08-14T07:39:51.933Z,101224.56
2023-08-14T07:42:24.595Z,101249.69
2023-08-14T07:44:57.228Z,101223.78
2023-08-14T07:47:30.016Z,101237.13
2023-08-14T07:50:17.842Z,101229.72
2023-08-14T07:53:02.805Z,101241.91
2023-08-14T07:55:35.497Z,101234.44
2023-08-14T07:58:15.164Z,101238.81
2023-08-14T08:00:47.925Z,101231.06
2023-08-14T08:03:20.662Z,101224.09
2023-08-14T08:05:53.466Z,101242.88
2023-08-14T08:08:26.136Z,101234.16
2023-08-14T08:11:24.389Z,101249.94
2023-08-14T08:13:58.567Z,101223.88
2023-08-14T08:16:37.716Z,101216.75
2023-08-14T08:19:10.528Z,101215.75
2023-08-14T08:21:45.227Z,101221.09
2023-08-14T08:24:17.875Z,101236.81
2023-08-14T08:26:50.636Z,101227.88
2023-08-14T08:29:23.243Z,101220.72
2023-08-14T08:32:09.449Z,101206.59
2023-08-14T08:34:51.591Z,101207.59
2023-08-14T08:37:42.767Z,101208.72
2023-08-14T08:40:18.533Z,101197.28
2023-08-14T08:43:06.339Z,101191.44
2023-08-14T08:46:01.160Z,101181.81
2023-08-14T08:49:20.297Z,101209.78
2023-08-14T08:52:16.604Z,101208.44
2023-08-14T08:55:02.386Z,101202.53
2023-08-14T08:57:37.500Z,101205.13
2023-08-14T09:00:11.234Z,101194.81
2023-08-14T09:02:47.300Z,101194.09
2023-08-14T09:05:24.682Z,101173.88
2023-08-14T09:08:06.772Z,101191.59
2023-08-14T09:10:39.890Z,101180.31
2023-08-14T09:13:24.907Z,101191.94
2023-08-14T09:16:05.029Z,101181.41
2023-08-14T09:18:37.714Z,101188.63
2023-08-14T09:21:11.598Z,101188.84
2023-08-14T09:23:45.062Z,101200.78
2023-08-14T09:26:21.447Z,101190.69
2023-08-14T09:28:54.505Z,101186.84
2023-08-14T09:31:35.234Z,101190.69
2023-08-14T09:34:08.391Z,101197.84
2023-08-14T09:36:41.121Z,101211.91
2023-08-14T09:39:13.918Z,101210.16
2023-08-14T09:41:50.902Z,101221.69
2023-08-14T09:44:26.928Z,101224.75
2023-08-14T09:47:01.467Z,101223.22
2023-08-14T09:49:34.290Z,101223.50
2023-08-14T09:52:08.818Z,101217.38
2023-08-14T09:54:42.294Z,101206.13
2023-08-14T09:57:15.364Z,101207.66
2023-08-14T09:59:48.102Z,101211.28
2023-08-14T10:02:24.954Z,101208.97
2023-08-14T10:04:59.397Z,101198.47
2023-08-14T10:07:33.162Z,101183.38
2023-08-14T10:10:12.301Z,101191.09
2023-08-14T10:12:55.324Z,101187.75
2023-08-14T10:15:37.714Z,101173.19
2023-08-14T10:18:18.945Z,101172.19
2023-08-14T10:20:54.570Z,101170.66
2023-08-14T10:23:29.813Z,101160.66
2023-08-14T10:26:03.896Z,101144.03
2023-08-14T10:28:37.706Z,101135.81
2023-08-14T10:31:12.244Z,101152.53
2023-08-14T10:33:45.860Z,101136.91
2023-08-14T10:36:20.894Z,101129.97
2023-08-14T10:41:35.591Z,101137.72
2023-08-14T10:44:10.641Z,101131.59
2023-08-14T10:46:49.624Z,101116.50
2023-08-14T10:49:22.255Z,101114.97
2023-08-14T10:52:02.807Z,101115.22
2023-08-14T10:54:38.722Z,101138.31
2023-08-14T10:57:13.661Z,101131.88
2023-08-14T10:59:57.534Z,101136.03
2023-08-14T11:02:42.740Z,101128.38
2023-08-14T11:05:17.855Z,101132.97
2023-08-14T11:08:01.304Z,101136.59
2023-08-14T11:10:37.742Z,101136.03
2023-08-14T11:13:12.264Z,101134.81
2023-08-14T11:15:45.090Z,101128.91
2023-08-14T11:18:20.352Z,101137.63
2023-08-14T11:20:53.097Z,101125.09
2023-08-14T11:23:25.760Z,101131.50
2023-08-14T11:25:58.531Z,101141.22
2023-08-14T11:28:34.599Z,101129.97
2023-08-14T11:31:07.368Z,101133.81
2023-08-14T11:33:41.663Z,101122.81
2023-08-14T11:36:14.424Z,101119.72
2023-08-14T11:38:49.610Z,101134.34
2023-08-14T11:43:59.301Z,101134.66
2023-08-14T11:46:32.276Z,101130.00
2023-08-14T11:49:06.340Z,101128.22
2023-08-14T11:51:41.557Z,101138.00
2023-08-14T11:54:15.391Z,101128.50
2023-08-14T11:56:48.715Z,101134.47
2023-08-14T11:59:21.411Z,101127.75
2023-08-14T12:01:54.268Z,101111.88
2023-08-14T12:04:27.039Z,101112.94
2023-08-14T12:06:59.792Z,101100.09
2023-08-14T12:09:32.790Z,101090.38
2023-08-14T12:12:15.620Z,101094.22
2023-08-14T12:14:51.561Z,101104.75
2023-08-14T12:17:24.843Z,101086.81
2023-08-14T12:20:05.064Z,101093.22
2023-08-14T12:22:38.181Z,101094.00
2023-08-14T12:25:20.125Z,101096.81
2023-08-14T12:27:52.904Z,101083.75
2023-08-14T12:30:25.565Z,101096.03
2023-08-14T12:32:59.338Z,101094.00
2023-08-14T12:35:33.079Z,101099.69
2023-08-14T12:38:06.759Z,101086.84
2023-08-14T12:40:39.990Z,101098.38
2023-08-14T12:43:12.678Z,101075.81
2023-08-14T12:45:45.585Z,101078.91
2023-08-14T12:48:18.273Z,101085.84
2023-08-14T12:50:51.045Z,101077.13
2023-08-14T12:53:23.727Z,101062.00
2023-08-14T12:56:03.420Z,101054.84
2023-08-14T12:58:37.011Z,101066.88
2023-08-14T13:01:09.796Z,101053.81
2023-08-14T13:03:44.607Z,101057.66
2023-08-14T13:06:19.135Z,101046.13
2023-08-14T13:09:01.632Z,101058.94
2023-08-14T13:11:34.867Z,101042.78
2023-08-14T13:14:08.094Z,101048.16
2023-08-14T13:16:40.809Z,101044.06
2023-08-14T13:19:13.631Z,101034.84
2023-08-14T13:21:46.264Z,101038.19
2023-08-14T13:24:19.415Z,101023.03
2023-08-14T13:26:52.549Z,101013.81
2023-08-14T13:31:57.695Z,100998.44
2023-08-14T13:34:30.837Z,101002.78
2023-08-14T13:37:04.163Z,101011.75
2023-08-14T13:39:37.616Z,100997.91
2023-08-14T13:42:10.330Z,100990.72
2023-08-14T13:45:08.403Z,101007.91
2023-08-14T13:47:53.777Z,100992.25
2023-08-14T13:50:33.995Z,100996.88
2023-08-14T13:53:07.135Z,100984.53
2023-08-14T13:55:43.398Z,100997.63
2023-08-14T13:58:16.274Z,100984.28
2023-08-14T14:00:48.926Z,100969.41
2023-08-14T14:03:21.697Z,100967.09
2023-08-14T14:05:54.576Z,100969.38
2023-08-14T14:08:27.364Z,100970.94
2023-08-14T14:11:00.007Z,100967.09
2023-08-14T14:13:32.735Z,100963.47
2023-08-14T14:16:05.700Z,100976.53
2023-08-14T14:18:39.668Z,100964.28
2023-08-14T14:21:12.383Z,100956.84
2023-08-14T14:23:45.046Z,100973.22
2023-08-14T14:26:17.691Z,100968.84
2023-08-14T14:28:50.304Z,100959.34
2023-08-14T14:31:23.040Z,100967.03
2023-08-14T14:34:02.588Z,100966.03
2023-08-14T14:36:36.239Z,100954.75
2023-08-14T14:39:12.961Z,100950.13
2023-08-14T14:41:48.991Z,100936.78
2023-08-14T14:44:24.661Z,100950.59
2023-08-14T14:46:57.499Z,100938.31
2023-08-14T14:49:30.407Z,100945.22
2023-08-14T14:52:03.660Z,100937.25
2023-08-14T14:55:06.992Z,100953.59
2023-08-14T14:57:45.776Z,100945.16
2023-08-14T15:00:37.962Z,100946.91
2023-08-14T15:03:11.809Z,100929.53
2023-08-14T15:05:59.081Z,100925.69
2023-08-14T15:08:31.950Z,100934.63
2023-08-14T15:11:04.612Z,100937.44
2023-08-14T15:13:37.944Z,100952.06
2023-08-14T15:16:10.770Z,100933.91
2023-08-14T15:18:56.963Z,100943.84
2023-08-14T15:21:30.036Z,100932.63
2023-08-14T15:24:02.966Z,100947.47
2023-08-14T15:26:35.756Z,100957.16
2023-08-14T15:29:16.518Z,100943.34
2023-08-14T15:31:51.321Z,100949.00
2023-08-14T15:34:32.045Z,100967.41
2023-08-14T15:37:04.968Z,100951.28
2023-08-14T15:39:39.060Z,100953.59
2023-08-14T15:42:11.923Z,100970.75
2023-08-14T15:44:44.714Z,100977.19
2023-08-14T15:47:27.558Z,100971.28
2023-08-14T15:50:00.357Z,100978.69
2023-08-14T15:52:36.453Z,100984.34
2023-08-14T15:55:09.859Z,100974.38
2023-08-14T15:57:42.565Z,100972.84
2023-08-14T16:00:16.345Z,100971.78
2023-08-14T16:02:48.911Z,100983.69
2023-08-14T16:05:21.628Z,100958.19
2023-08-14T16:07:54.433Z,100958.19
2023-08-14T16:10:52.233Z,100969.38
2023-08-14T16:13:25.080Z,100962.81
2023-08-14T16:16:07.913Z,100976.63
2023-08-14T16:18:40.705Z,100978.44
2023-08-14T16:21:13.422Z,100966.16
2023-08-14T16:23:48.409Z,100973.53
2023-08-14T16:26:21.318Z,100980.72
2023-08-14T16:28:54.225Z,100961.56
2023-08-14T16:31:27.048Z,100972.03
2023-08-14T16:34:02.987Z,100973.81
2023-08-14T16:36:38.261Z,100956.91
2023-08-14T16:39:13.929Z,100960.00
2023-08-14T16:41:47.770Z,100961.25
2023-08-14T16:44:21.460Z,100973.78
2023-08-14T16:46:55.330Z,100978.25
2023-08-14T16:49:28.125Z,100951.72
2023-08-14T16:52:03.604Z,100955.31
2023-08-14T16:54:36.382Z,100938.69
2023-08-14T16:57:38.275Z,100955.47
2023-08-14T17:00:16.070Z,100950.72
2023-08-14T17:02:48.983Z,100954.28
2023-08-14T17:05:22.108Z,100959.09
2023-08-14T17:07:55.907Z,100943.00
2023-08-14T17:10:28.784Z,100959.50
2023-08-14T17:13:01.719Z,100942.75
2023-08-14T17:15:45.360Z,100943.47
2023-08-14T17:18:18.066Z,100942.97
2023-08-14T17:20:51.160Z,100948.13
2023-08-14T17:23:23.852Z,100936.84
2023-08-14T17:25:58.877Z,100931.75
2023-08-14T17:28:31.585Z,100936.09
2023-08-14T17:31:04.431Z,100940.47
2023-08-14T17:33:37.199Z,100952.22
2023-08-14T17:36:10.650Z,100938.91
2023-08-14T17:38:43.376Z,100948.66
2023-08-14T17:41:16.061Z,100954.53
2023-08-14T17:43:48.850Z,100944.06
2023-08-14T17:46:21.657Z,100939.19
2023-08-14T17:48:54.467Z,100934.84
2023-08-14T17:51:27.245Z,100944.25
2023-08-14T17:53:59.981Z,100935.06
2023-08-14T17:56:32.835Z,100940.94
2023-08-14T17:59:05.594Z,100930.47
2023-08-14T18:01:38.440Z,100936.59
2023-08-14T18:04:11.358Z,100940.94
2023-08-14T18:06:47.135Z,100944.75
2023-08-14T18:09:22.446Z,100948.88
2023-08-14T18:11:57.916Z,100947.09
2023-08-14T18:14:30.772Z,100938.38
2023-08-14T18:17:07.053Z,100952.22
2023-08-14T18:20:29.117Z,100944.19
2023-08-14T18:23:09.209Z,100930.97
2023-08-14T18:26:30.520Z,100955.47
2023-08-14T18:29:19.945Z,100945.03
2023-08-14T18:31:58.831Z,100932.78
2023-08-14T18:34:46.842Z,100932.28
2023-08-14T18:37:22.766Z,100947.41
2023-08-14T18:39:55.783Z,100956.13
2023-08-14T18:42:28.532Z,100960.69
2023-08-14T18:45:10.073Z,100935.38
2023-08-14T18:47:42.787Z,100941.31
2023-08-14T18:50:15.747Z,100960.00
2023-08-14T18:52:52.684Z,100968.97
2023-08-14T18:55:25.453Z,100966.41
2023-08-14T18:57:58.344Z,100974.88
2023-08-14T19:00:31.192Z,100966.97
2023-08-14T19:03:04.407Z,100966.41
2023-08-14T19:05:37.325Z,100982.81
2023-08-14T19:08:10.582Z,100964.91
2023-08-14T19:10:51.705Z,100959.56
2023-08-14T19:13:30.970Z,100976.69
2023-08-14T19:16:06.822Z,100991.03
2023-08-14T19:18:39.867Z,100962.38
2023-08-14T19:21:13.503Z,100986.66
2023-08-14T19:23:47.102Z,100999.13
2023-08-14T19:26:28.524Z,100993.63
2023-08-14T19:29:04.776Z,100990.56
2023-08-14T19:31:53.143Z,101003.84
2023-08-14T19:34:25.980Z,100977.75
2023-08-14T19:37:04.482Z,100999.78
2023-08-14T19:39:49.298Z,101003.16
2023-08-14T19:42:24.659Z,101000.34
2023-08-14T19:44:59.887Z,101016.25
2023-08-14T19:47:43.758Z,101024.16
2023-08-14T19:50:16.756Z,101014.69
2023-08-14T19:52:50.467Z,101011.38
2023-08-14T19:55:23.112Z,101026.38
2023-08-14T19:58:18.354Z,101021.84
2023-08-14T20:00:51.172Z,101010.34
2023-08-14T20:03:24.045Z,101005.47
2023-08-14T20:05:59.081Z,101008.84
2023-08-14T20:08:31.868Z,101013.44
2023-08-14T20:11:05.748Z,101014.75
2023-08-14T20:13:38.533Z,101003.47
2023-08-14T20:16:11.509Z,101012.69
2023-08-14T20:18:44.414Z,100995.25
2023-08-14T20:21:17.433Z,100991.13
2023-08-14T20:23:50.143Z,100979.59
2023-08-14T20:26:24.346Z,100968.84
2023-08-14T20:28:59.256Z,100971.94
2023-08-14T20:31:32.109Z,100981.94
2023-08-14T20:34:10.306Z,100998.31
2023-08-14T20:36:44.017Z,101004.97
2023-08-14T20:39:16.962Z,101009.88
2023-08-14T20:41:49.818Z,100992.19
2023-08-14T20:44:22.786Z,101001.94
2023-08-14T20:46:55.577Z,101017.31
2023-08-14T20:49:29.457Z,101008.34
2023-08-14T20:52:02.610Z,101010.63
2023-08-14T20:55:00.209Z,101020.91
2023-08-14T20:57:32.984Z,101006.81
2023-08-14T21:00:06.560Z,100989.88
2023-08-14T21:05:27.524Z,100990.13
2023-08-14T21:08:06.268Z,100995.53
2023-08-14T21:10:46.605Z,100994.50
2023-08-14T21:13:22.483Z,100996.06
2023-08-14T21:16:00.499Z,100981.19
2023-08-14T21:18:41.723Z,100987.34
2023-08-14T21:21:29.432Z,100999.34
2023-08-14T21:24:02.140Z,101004.78
2023-08-14T21:29:32.420Z,100999.66
2023-08-14T21:32:06.442Z,101006.84
2023-08-14T21:34:41.567Z,101000.19
2023-08-14T21:37:14.328Z,100999.44
2023-08-14T21:39:47.158Z,101003.78
2023-08-14T21:42:19.849Z,101025.28
2023-08-14T21:44:55.187Z,101018.38
2023-08-14T21:47:28.053Z,101021.47
2023-08-14T21:50:01.186Z,100998.94
2023-08-14T21:52:34.018Z,101023.00
2023-08-14T21:55:07.650Z,101007.38
2023-08-14T21:57:40.418Z,100998.66
2023-08-14T22:00:25.340Z,101019.94
2023-08-14T22:02:58.295Z,100998.41
2023-08-14T22:05:31.166Z,101004.31
2023-08-14T22:08:09.075Z,101000.72
2023-08-14T22:10:45.247Z,100988.44
2023-08-14T22:13:18.033Z,100994.59
2023-08-14T22:15:51.241Z,100997.41
2023-08-14T22:18:26.856Z,101002.50
2023-08-14T22:21:02.589Z,100984.06
2023-08-14T22:24:04.833Z,100998.38
2023-08-14T22:26:40.105Z,100994.34
2023-08-14T22:29:40.612Z,100992.75
2023-08-14T22:32:13.331Z,100976.38
2023-08-14T22:34:46.108Z,100982.53
2023-08-14T22:37:19.269Z,100967.69
2023-08-14T22:39:54.407Z,100994.84
2023-08-14T22:42:27.278Z,100983.56
2023-08-14T22:45:00.073Z,100984.06
2023-08-14T22:47:33.101Z,100985.88
2023-08-14T22:50:10.188Z,100983.56
2023-08-14T22:52:48.928Z,100978.97
2023-08-14T22:55:43.255Z,100991.72
2023-08-14T22:58:19.696Z,100987.41
2023-08-14T23:00:57.657Z,100971.28
2023-08-14T23:03:48.444Z,100979.97
2023-08-14T23:06:24.347Z,101003.31
2023-08-14T23:08:57.116Z,100971.78
2023-08-14T23:11:31.477Z,100970.25
2023-08-14T23:14:04.445Z,100980.22
2023-08-14T23:16:42.992Z,100970.50
2023-08-14T23:19:17.065Z,100968.97
2023-08-14T23:21:49.850Z,100958.22
2023-08-14T23:24:22.671Z,100978.97
2023-08-14T23:26:55.524Z,100963.09
2023-08-14T23:29:28.261Z,100961.06
2023-08-14T23:32:01.017Z,100959.00
2023-08-14T23:34:33.760Z,100962.59
2023-08-14T23:37:06.529Z,100958.50
2023-08-14T23:39:39.203Z,100979.00
2023-08-14T23:42:11.904Z,101000.50
2023-08-14T23:45:07.967Z,100979.00
2023-08-14T23:47:46.717Z,100975.41
2023-08-14T23:50:19.490Z,100978.22
2023-08-14T23:52:52.281Z,100992.81
2023-08-14T23:55:25.172Z,100977.19
2023-08-14T23:57:58.076Z,100979.00
